createdAt,value
2023-03-26T00:01:46.601Z,6.10
2023-03-26T00:04:14.344Z,2.97
2023-03-26T00:06:42.093Z,3.92
2023-03-26T00:09:12.983Z,5.15
2023-03-26T00:11:40.611Z,4.13
2023-03-26T00:14:09.398Z,2.67
2023-03-26T00:16:37.071Z,3.67
2023-03-26T00:19:06.189Z,2.85
2023-03-26T00:21:33.813Z,4.35
2023-03-26T00:24:04.386Z,4.38
2023-03-26T00:26:33.494Z,5.93
2023-03-26T00:29:03.287Z,5.85
2023-03-26T00:31:31.236Z,3.25
2023-03-26T00:33:59.409Z,4.82
2023-03-26T00:36:28.355Z,6.25
2023-03-26T00:38:56.309Z,2.90
2023-03-26T00:41:26.678Z,4.70
2023-03-26T00:43:56.643Z,4.63
2023-03-26T00:46:24.981Z,4.22
2023-03-26T00:48:52.854Z,4.90
2023-03-26T00:51:21.791Z,4.43
2023-03-26T00:53:51.128Z,4.38
2023-03-26T00:56:20.034Z,3.55
2023-03-26T00:58:49.824Z,3.08
2023-03-26T01:01:20.630Z,3.05
2023-03-26T01:04:04.837Z,3.03
2023-03-26T01:06:36.153Z,3.85
2023-03-26T01:09:13.499Z,9.15
2023-03-26T01:11:41.384Z,5.75
2023-03-26T01:14:12.243Z,5.63
2023-03-26T01:16:42.485Z,7.53
2023-03-26T01:19:16.426Z,3.95
2023-03-26T01:21:43.992Z,4.95
2023-03-26T01:24:13.660Z,7.20
2023-03-26T01:26:55.565Z,4.95
2023-03-26T01:29:33.638Z,4.20
2023-03-26T01:32:10.510Z,9.02
2023-03-26T01:34:52.211Z,5.22
2023-03-26T01:37:27.169Z,4.38
2023-03-26T01:39:58.187Z,4.50
2023-03-26T01:42:34.750Z,5.93
2023-03-26T01:45:09.099Z,5.65
2023-03-26T01:47:38.974Z,4.78
2023-03-26T01:50:07.960Z,4.60
2023-03-26T01:52:35.637Z,6.10
2023-03-26T01:55:05.343Z,4.28
2023-03-26T01:57:42.840Z,4.00
2023-03-26T02:00:22.068Z,6.85
2023-03-26T02:03:03.437Z,4.97
2023-03-26T02:05:35.072Z,3.88
2023-03-26T02:08:11.877Z,3.15
2023-03-26T02:10:44.100Z,4.85
2023-03-26T02:13:12.390Z,4.53
2023-03-26T02:15:41.321Z,6.80
2023-03-26T02:18:10.774Z,7.35
2023-03-26T02:20:38.733Z,5.72
2023-03-26T02:23:06.769Z,6.40
2023-03-26T02:25:36.629Z,2.28
2023-03-26T02:28:06.344Z,10.65
2023-03-26T02:30:34.572Z,5.03
2023-03-26T02:33:02.397Z,4.63
2023-03-26T02:35:45.656Z,5.28
2023-03-26T02:38:14.412Z,3.85
2023-03-26T02:40:42.413Z,8.27
2023-03-26T02:43:11.362Z,5.03
2023-03-26T02:45:39.978Z,4.43
2023-03-26T02:48:07.855Z,6.00
2023-03-26T02:50:50.065Z,5.63
2023-03-26T02:53:41.166Z,3.33
2023-03-26T02:56:31.375Z,6.53
2023-03-26T03:02:18.314Z,7.60
2023-03-26T03:04:46.574Z,4.68
2023-03-26T03:07:15.861Z,5.00
2023-03-26T03:09:43.629Z,3.97
2023-03-26T03:12:46.253Z,5.30
2023-03-26T03:15:15.218Z,5.90
2023-03-26T03:17:42.867Z,7.05
2023-03-26T03:20:12.182Z,4.60
2023-03-26T03:22:41.140Z,8.10
2023-03-26T03:25:14.204Z,9.70
2023-03-26T03:27:42.812Z,6.45
2023-03-26T03:30:15.466Z,7.18
2023-03-26T03:32:45.816Z,3.67
2023-03-26T03:35:15.775Z,5.05
2023-03-26T03:37:48.052Z,9.97
2023-03-26T03:40:15.803Z,3.88
2023-03-26T03:42:44.288Z,5.57
2023-03-26T03:45:15.566Z,3.35
2023-03-26T03:47:53.067Z,7.18
2023-03-26T03:50:28.122Z,11.55
2023-03-26T03:53:10.404Z,7.85
2023-03-26T03:55:38.155Z,6.85
2023-03-26T03:58:06.029Z,4.70
2023-03-26T04:00:34.977Z,5.22
2023-03-26T04:03:32.995Z,3.80
2023-03-26T04:06:02.708Z,4.10
2023-03-26T04:08:30.328Z,6.32
2023-03-26T04:10:58.114Z,5.60
2023-03-26T04:13:44.611Z,4.80
2023-03-26T04:16:36.150Z,5.53
2023-03-26T04:19:04.683Z,6.82
2023-03-26T04:21:32.371Z,4.65
2023-03-26T04:24:01.600Z,5.32
2023-03-26T04:26:52.133Z,5.72
2023-03-26T04:29:27.637Z,4.72
2023-03-26T04:31:59.144Z,3.80
2023-03-26T04:34:30.963Z,6.07
2023-03-26T04:37:26.497Z,6.00
2023-03-26T04:40:10.380Z,5.80
2023-03-26T04:43:04.585Z,5.07
2023-03-26T04:45:53.943Z,7.13
2023-03-26T04:48:25.857Z,3.78
2023-03-26T04:50:53.551Z,3.58
2023-03-26T04:53:24.090Z,7.47
2023-03-26T04:56:24.542Z,2.95
2023-03-26T04:59:26.422Z,5.63
2023-03-26T05:01:56.812Z,3.75
2023-03-26T05:04:29.408Z,8.23
2023-03-26T05:06:59.239Z,5.03
2023-03-26T05:09:35.066Z,4.00
2023-03-26T05:12:11.704Z,6.43
2023-03-26T05:15:03.192Z,5.03
2023-03-26T05:17:55.467Z,5.93
2023-03-26T05:20:31.172Z,4.07
2023-03-26T05:22:58.813Z,5.65
2023-03-26T05:25:31.745Z,4.53
2023-03-26T05:28:01.284Z,7.00
2023-03-26T05:30:36.982Z,4.15
2023-03-26T05:33:05.360Z,6.05
2023-03-26T05:35:43.942Z,6.47
2023-03-26T05:38:11.706Z,4.90
2023-03-26T05:40:39.284Z,3.90
2023-03-26T05:43:08.271Z,6.75
2023-03-26T05:45:42.502Z,6.95
2023-03-26T05:48:20.750Z,5.88
2023-03-26T05:50:50.455Z,5.50
2023-03-26T05:53:19.560Z,5.85
2023-03-26T05:56:06.408Z,8.25
2023-03-26T05:58:52.592Z,7.15
2023-03-26T06:01:44.708Z,5.10
2023-03-26T06:04:13.574Z,5.85
2023-03-26T06:06:48.588Z,5.95
2023-03-26T06:09:16.985Z,4.47
2023-03-26T06:11:44.683Z,4.80
2023-03-26T06:14:12.453Z,4.22
2023-03-26T06:16:51.783Z,5.50
2023-03-26T06:19:21.409Z,5.13
2023-03-26T06:22:19.685Z,6.88
2023-03-26T06:25:09.750Z,6.22
2023-03-26T06:27:57.592Z,6.00
2023-03-26T06:33:51.974Z,5.03
2023-03-26T06:36:19.717Z,5.88
2023-03-26T06:38:51.448Z,7.10
2023-03-26T06:41:19.053Z,5.70
2023-03-26T06:44:02.230Z,8.10
2023-03-26T06:47:04.862Z,4.97
2023-03-26T06:49:55.345Z,8.60
2023-03-26T06:52:46.643Z,4.13
2023-03-26T06:55:37.795Z,3.22
2023-03-26T06:58:24.238Z,5.82
2023-03-26T07:01:10.797Z,5.18
2023-03-26T07:04:00.107Z,5.32
2023-03-26T07:06:50.858Z,5.78
2023-03-26T07:09:37.128Z,5.90
2023-03-26T07:12:24.615Z,4.25
2023-03-26T07:15:11.863Z,2.80
2023-03-26T07:17:58.143Z,4.72
2023-03-26T07:20:30.711Z,5.30
2023-03-26T07:22:58.769Z,4.13
2023-03-26T07:25:52.958Z,4.88
2023-03-26T07:28:40.015Z,4.13
2023-03-26T07:31:27.127Z,2.45
2023-03-26T07:34:30.562Z,5.20
2023-03-26T07:37:24.591Z,5.43
2023-03-26T07:40:25.480Z,8.38
2023-03-26T07:43:20.929Z,3.85
2023-03-26T07:46:14.151Z,4.68
2023-03-26T07:49:01.769Z,7.13
2023-03-26T07:51:37.947Z,7.82
2023-03-26T07:54:32.274Z,12.20
2023-03-26T07:57:29.698Z,5.55
2023-03-26T08:00:20.026Z,7.38
2023-03-26T08:03:22.158Z,5.68
2023-03-26T08:06:06.351Z,2.60
2023-03-26T08:08:57.658Z,3.78
2023-03-26T08:11:48.949Z,5.88
2023-03-26T08:14:38.593Z,5.85
2023-03-26T08:17:10.747Z,2.72
2023-03-26T08:19:50.679Z,4.57
2023-03-26T08:22:27.269Z,5.78
2023-03-26T08:25:05.197Z,6.40
2023-03-26T08:27:40.032Z,5.93
2023-03-26T08:30:14.562Z,5.00
2023-03-26T08:32:42.658Z,5.47
2023-03-26T08:35:14.346Z,7.25
2023-03-26T08:37:45.217Z,7.63
2023-03-26T08:40:14.700Z,5.78
2023-03-26T08:43:09.233Z,4.40
2023-03-26T08:45:57.919Z,6.15
2023-03-26T08:49:10.816Z,7.97
2023-03-26T08:52:22.887Z,6.53
2023-03-26T08:55:10.139Z,4.40
2023-03-26T08:58:15.146Z,5.40
2023-03-26T09:01:22.918Z,4.18
2023-03-26T09:04:08.144Z,8.35
2023-03-26T09:07:06.727Z,7.30
2023-03-26T09:10:09.040Z,6.60
2023-03-26T09:13:05.821Z,5.45
2023-03-26T09:16:20.981Z,5.35
2023-03-26T09:19:20.488Z,4.80
2023-03-26T09:22:23.490Z,5.70
2023-03-26T09:25:16.325Z,4.90
2023-03-26T09:28:07.800Z,5.85
2023-03-26T09:31:04.449Z,3.08
2023-03-26T09:33:57.045Z,3.10
2023-03-26T09:36:52.059Z,6.13
2023-03-26T09:39:36.485Z,4.20
2023-03-26T09:42:11.735Z,3.42
2023-03-26T09:45:10.492Z,3.15
2023-03-26T09:48:18.795Z,3.17
2023-03-26T09:50:57.746Z,4.43
2023-03-26T09:53:41.686Z,3.05
2023-03-26T09:59:17.268Z,3.43
2023-03-26T10:01:51.411Z,2.85
2023-03-26T10:04:59.391Z,3.33
2023-03-26T10:07:47.766Z,2.72
2023-03-26T10:10:26.296Z,2.08
2023-03-26T10:13:11.659Z,2.28
2023-03-26T10:16:04.365Z,2.97
2023-03-26T10:18:43.836Z,2.03
2023-03-26T10:21:24.344Z,4.60
2023-03-26T10:24:07.856Z,3.70
2023-03-26T10:27:09.032Z,3.33
2023-03-26T10:30:14.293Z,2.00
2023-03-26T10:32:53.033Z,3.20
2023-03-26T10:35:31.610Z,2.53
2023-03-26T10:38:14.695Z,3.83
2023-03-26T10:40:48.941Z,2.90
2023-03-26T10:43:37.713Z,1.98
2023-03-26T10:46:30.916Z,3.45
2023-03-26T10:49:32.490Z,2.47
2023-03-26T10:52:03.550Z,2.03
2023-03-26T10:54:42.009Z,3.03
2023-03-26T10:57:20.816Z,3.05
2023-03-26T10:59:48.358Z,2.15
2023-03-26T11:02:29.251Z,0.95
2023-03-26T11:05:19.212Z,2.95
2023-03-26T11:07:53.771Z,4.63
2023-03-26T11:10:41.725Z,1.88
2023-03-26T11:13:19.082Z,3.20
2023-03-26T11:15:52.970Z,3.45
2023-03-26T11:18:25.548Z,2.83
2023-03-26T11:21:19.452Z,2.67
2023-03-26T11:24:05.609Z,1.48
2023-03-26T11:26:42.142Z,2.53
2023-03-26T11:29:32.803Z,1.25
2023-03-26T11:32:06.963Z,1.88
2023-03-26T11:37:14.999Z,2.38
2023-03-26T11:39:48.738Z,2.08
2023-03-26T11:42:18.606Z,3.20
2023-03-26T11:44:52.124Z,1.92
2023-03-26T11:47:24.709Z,1.00
2023-03-26T11:49:54.372Z,2.80
2023-03-26T11:52:23.403Z,1.95
2023-03-26T11:54:51.007Z,3.42
2023-03-26T11:57:23.188Z,4.38
2023-03-26T11:59:57.925Z,3.22
2023-03-26T12:02:32.281Z,2.53
2023-03-26T12:05:15.912Z,2.08
2023-03-26T12:07:51.069Z,2.67
2023-03-26T12:10:24.635Z,1.85
2023-03-26T12:12:56.997Z,4.72
2023-03-26T12:15:26.202Z,1.02
2023-03-26T12:17:56.408Z,1.90
2023-03-26T12:20:35.880Z,2.70
2023-03-26T12:23:08.104Z,3.20
2023-03-26T12:25:38.495Z,3.38
2023-03-26T12:28:18.865Z,3.17
2023-03-26T12:30:54.777Z,3.38
2023-03-26T12:33:27.740Z,3.08
2023-03-26T12:35:58.312Z,3.08
2023-03-26T12:38:33.068Z,1.63
2023-03-26T12:41:06.642Z,2.50
2023-03-26T12:44:50.229Z,3.67
2023-03-26T12:47:58.751Z,3.55
2023-03-26T12:49:18.939Z,2.53
2023-03-26T12:51:51.728Z,4.57
2023-03-26T12:54:45.532Z,3.03
2023-03-26T12:57:22.216Z,4.47
2023-03-26T13:00:10.649Z,4.43
2023-03-26T13:03:00.927Z,4.25
2023-03-26T13:05:41.883Z,3.25
2023-03-26T13:08:24.957Z,3.17
2023-03-26T13:11:01.130Z,3.92
2023-03-26T13:14:04.354Z,4.05
2023-03-26T13:16:41.874Z,2.58
2023-03-26T13:19:14.040Z,3.20
2023-03-26T13:21:57.235Z,2.20
2023-03-26T13:24:35.624Z,3.53
2023-03-26T13:27:17.842Z,4.70
2023-03-26T13:29:56.982Z,3.10
2023-03-26T13:32:34.185Z,3.30
2023-03-26T13:35:14.397Z,2.65
2023-03-26T13:37:50.440Z,5.00
2023-03-26T13:40:31.992Z,3.67
2023-03-26T13:43:28.010Z,2.35
2023-03-26T13:46:02.596Z,2.83
2023-03-26T13:48:34.364Z,3.55
2023-03-26T13:51:09.621Z,3.25
2023-03-26T13:53:44.389Z,3.65
2023-03-26T13:56:15.585Z,2.90
2023-03-26T13:58:51.158Z,2.38
2023-03-26T14:01:21.653Z,2.38
2023-03-26T14:03:56.968Z,1.98
2023-03-26T14:06:36.445Z,2.33
2023-03-26T14:09:08.375Z,2.28
2023-03-26T14:11:47.633Z,2.28
2023-03-26T14:14:20.341Z,2.75
2023-03-26T14:16:51.681Z,2.60
2023-03-26T14:19:42.865Z,1.83
2023-03-26T14:22:20.209Z,2.50
2023-03-26T14:25:00.961Z,3.90
2023-03-26T14:27:44.062Z,3.63
2023-03-26T14:30:37.149Z,7.70
2023-03-26T14:33:27.314Z,3.67
2023-03-26T14:36:02.489Z,3.63
2023-03-26T14:38:57.517Z,4.50
2023-03-26T14:41:26.188Z,1.15
2023-03-26T14:44:18.112Z,6.10
2023-03-26T14:46:59.727Z,3.05
2023-03-26T14:49:46.064Z,3.13
2023-03-26T14:52:22.222Z,2.35
2023-03-26T14:54:54.830Z,4.15
2023-03-26T14:58:02.161Z,1.73
2023-03-26T15:00:55.125Z,2.35
2023-03-26T15:04:21.935Z,3.47
2023-03-26T15:07:41.186Z,1.42
2023-03-26T15:10:16.724Z,0.60
2023-03-26T15:12:59.319Z,3.05
2023-03-26T15:16:28.118Z,2.22
2023-03-26T15:19:34.356Z,1.27
2023-03-26T15:22:23.446Z,2.30
2023-03-26T15:25:15.182Z,2.53
2023-03-26T15:28:31.725Z,1.55
2023-03-26T15:31:13.840Z,1.70
2023-03-26T15:33:59.785Z,0.95
2023-03-26T15:36:56.429Z,1.50
2023-03-26T15:39:59.670Z,1.52
2023-03-26T15:42:38.295Z,0.30
2023-03-26T15:45:32.651Z,1.70
2023-03-26T15:48:13.290Z,1.20
2023-03-26T15:50:52.200Z,2.47
2023-03-26T15:53:30.856Z,28.40
2023-03-26T15:56:14.864Z,21.05
2023-03-26T15:58:51.258Z,2.10
2023-03-26T16:01:31.529Z,2.40
2023-03-26T16:04:14.687Z,2.15
2023-03-26T16:06:52.079Z,2.17
2023-03-26T16:09:38.877Z,1.25
2023-03-26T16:12:29.867Z,1.98
2023-03-26T16:15:26.030Z,0.85
2023-03-26T16:18:29.726Z,3.78
2023-03-26T16:21:05.994Z,1.63
2023-03-26T16:23:53.650Z,6.40
2023-03-26T16:26:26.519Z,2.08
2023-03-26T16:29:16.306Z,3.78
2023-03-26T16:32:04.923Z,4.45
2023-03-26T16:34:41.950Z,4.30
2023-03-26T16:37:36.107Z,1.80
2023-03-26T16:40:33.073Z,2.05
2023-03-26T16:43:31.554Z,1.42
2023-03-26T16:46:07.498Z,1.05
2023-03-26T16:48:41.479Z,1.55
2023-03-26T16:51:18.544Z,3.15
2023-03-26T16:53:54.526Z,2.15
2023-03-26T16:56:34.422Z,1.17
2023-03-26T16:59:09.351Z,2.30
2023-03-26T17:01:43.018Z,2.15
2023-03-26T17:04:17.310Z,1.33
2023-03-26T17:07:03.268Z,1.30
2023-03-26T17:09:42.691Z,2.15
2023-03-26T17:12:19.565Z,2.45
2023-03-26T17:15:01.250Z,1.52
2023-03-26T17:17:45.019Z,1.15
2023-03-26T17:20:25.278Z,1.42
2023-03-26T17:23:03.094Z,0.52
2023-03-26T17:25:37.045Z,0.93
2023-03-26T17:28:32.600Z,1.27
2023-03-26T17:31:07.621Z,3.65
2023-03-26T17:33:38.491Z,1.75
2023-03-26T17:36:32.261Z,0.93
2023-03-26T17:39:21.205Z,1.00
2023-03-26T17:41:55.587Z,0.70
2023-03-26T17:44:38.087Z,1.80
2023-03-26T17:47:18.549Z,2.30
2023-03-26T17:49:48.408Z,2.75
2023-03-26T17:52:21.739Z,2.17
2023-03-26T17:57:24.336Z,1.13
2023-03-26T17:59:57.197Z,1.00
2023-03-26T18:02:41.353Z,1.40
2023-03-26T18:05:12.239Z,1.73
2023-03-26T18:08:14.067Z,1.40
2023-03-26T18:10:58.989Z,2.88
2023-03-26T18:13:50.290Z,0.93
2023-03-26T18:16:20.791Z,1.58
2023-03-26T18:18:53.305Z,1.52
2023-03-26T18:21:25.013Z,1.90
2023-03-26T18:23:53.345Z,1.35
2023-03-26T18:26:34.038Z,1.00
2023-03-26T18:29:13.682Z,1.65
2023-03-26T18:31:42.894Z,2.97
2023-03-26T18:34:18.643Z,1.25
2023-03-26T18:36:46.581Z,0.88
2023-03-26T18:39:14.397Z,1.25
2023-03-26T18:41:43.461Z,0.80
2023-03-26T18:44:16.662Z,1.83
2023-03-26T18:46:44.851Z,0.65
2023-03-26T18:49:16.630Z,1.40
2023-03-26T18:51:56.249Z,0.90
2023-03-26T18:54:25.912Z,0.80
2023-03-26T18:56:53.498Z,0.75
2023-03-26T18:59:28.014Z,0.82
2023-03-26T19:01:58.276Z,0.95
2023-03-26T19:04:30.892Z,0.63
2023-03-26T19:06:59.007Z,0.68
2023-03-26T19:09:32.238Z,0.40
2023-03-26T19:12:06.997Z,0.20
2023-03-26T19:14:36.957Z,0.50
2023-03-26T19:17:07.734Z,0.55
2023-03-26T19:19:38.537Z,0.65
2023-03-26T19:22:07.175Z,1.10
2023-03-26T19:24:35.330Z,1.50
2023-03-26T19:27:03.806Z,0.57
2023-03-26T19:29:35.564Z,0.80
2023-03-26T19:32:04.974Z,0.47
2023-03-26T19:34:34.723Z,1.10
2023-03-26T19:37:16.842Z,1.60
2023-03-26T19:39:47.138Z,1.35
2023-03-26T19:42:16.950Z,0.68
2023-03-26T19:44:45.573Z,1.75
2023-03-26T19:47:18.593Z,0.93
2023-03-26T19:49:53.830Z,0.60
2023-03-26T19:52:25.802Z,0.63
2023-03-26T19:54:59.321Z,1.40
2023-03-26T19:57:29.266Z,1.33
2023-03-26T19:59:57.321Z,1.52
2023-03-26T20:02:25.196Z,1.30
2023-03-26T20:04:53.154Z,0.60
2023-03-26T20:07:35.306Z,0.50
2023-03-26T20:10:05.231Z,2.17
2023-03-26T20:12:32.746Z,1.38
2023-03-26T20:15:01.530Z,1.63
2023-03-26T20:17:31.522Z,0.57
2023-03-26T20:20:02.393Z,1.63
2023-03-26T20:22:31.439Z,2.08
2023-03-26T20:24:59.127Z,1.70
2023-03-26T20:27:27.151Z,1.48
2023-03-26T20:29:55.818Z,1.00
2023-03-26T20:32:27.036Z,1.45
2023-03-26T20:34:54.958Z,1.30
2023-03-26T20:37:23.156Z,1.88
2023-03-26T20:39:52.073Z,0.90
2023-03-26T20:42:19.580Z,1.17
2023-03-26T20:44:47.337Z,0.77
2023-03-26T20:47:14.976Z,3.13
2023-03-26T20:49:43.074Z,1.30
2023-03-26T20:52:14.033Z,1.05
2023-03-26T20:54:41.758Z,2.30
2023-03-26T20:57:13.308Z,1.45
2023-03-26T20:59:41.886Z,2.22
2023-03-26T21:02:11.575Z,1.55
2023-03-26T21:04:39.707Z,2.85
2023-03-26T21:07:17.844Z,1.20
2023-03-26T21:09:47.472Z,2.60
2023-03-26T21:12:26.076Z,1.70
2023-03-26T21:14:55.934Z,1.27
2023-03-26T21:17:24.629Z,3.20
2023-03-26T21:19:52.366Z,1.10
2023-03-26T21:22:33.763Z,1.25
2023-03-26T21:25:17.010Z,0.95
2023-03-26T21:27:56.083Z,0.93
2023-03-26T21:30:24.073Z,1.75
2023-03-26T21:32:52.219Z,1.27
2023-03-26T21:35:20.934Z,2.95
2023-03-26T21:37:49.099Z,0.95
2023-03-26T21:40:18.660Z,3.25
2023-03-26T21:42:50.053Z,2.92
2023-03-26T21:45:19.320Z,0.80
2023-03-26T21:47:47.395Z,1.75
2023-03-26T21:50:18.057Z,3.05
2023-03-26T21:52:49.095Z,1.40
2023-03-26T21:55:20.069Z,2.25
2023-03-26T21:58:16.224Z,1.35
2023-03-26T22:00:57.999Z,1.00
2023-03-26T22:03:30.827Z,3.13
2023-03-26T22:06:04.204Z,1.08
2023-03-26T22:11:00.621Z,1.77
2023-03-26T22:13:30.941Z,2.13
2023-03-26T22:15:58.738Z,1.85
2023-03-26T22:18:30.064Z,1.55
2023-03-26T22:20:59.029Z,4.90
2023-03-26T22:23:26.827Z,2.88
2023-03-26T22:25:54.587Z,2.75
2023-03-26T22:28:22.456Z,3.00
2023-03-26T22:30:52.093Z,2.60
2023-03-26T22:33:20.056Z,2.63
2023-03-26T22:35:47.728Z,1.52
2023-03-26T22:38:16.998Z,1.35
2023-03-26T22:40:44.652Z,2.55
2023-03-26T22:43:12.324Z,1.25
2023-03-26T22:45:41.034Z,3.72
2023-03-26T22:48:10.787Z,1.85
2023-03-26T22:50:38.339Z,2.15
2023-03-26T22:53:06.316Z,1.08
2023-03-26T22:55:34.112Z,0.98
2023-03-26T22:58:01.728Z,3.67
2023-03-26T23:00:29.310Z,1.73
2023-03-26T23:03:00.032Z,3.05
2023-03-26T23:05:29.498Z,1.48
2023-03-26T23:07:57.112Z,2.10
2023-03-26T23:10:24.925Z,2.03
2023-03-26T23:12:52.907Z,3.47
2023-03-26T23:15:20.549Z,1.60
2023-03-26T23:17:54.121Z,1.90
2023-03-26T23:20:22.625Z,1.48
2023-03-26T23:22:52.325Z,1.38
2023-03-26T23:25:20.085Z,0.90
2023-03-26T23:27:48.317Z,0.63
2023-03-26T23:30:16.661Z,1.70
2023-03-26T23:32:44.258Z,2.20
2023-03-26T23:35:12.083Z,0.50
2023-03-26T23:37:42.139Z,0.75
2023-03-26T23:40:13.761Z,0.68
2023-03-26T23:42:41.662Z,1.25
2023-03-26T23:45:09.851Z,1.90
2023-03-26T23:47:42.744Z,0.70
2023-03-26T23:50:11.665Z,0.82
2023-03-26T23:52:39.386Z,1.05
2023-03-26T23:55:07.990Z,1.02
2023-03-26T23:57:37.707Z,2.20
